METAR Data
IDs: Format: Raw Decoded Include TAF

Data at: 0159 UTC 01 Mar 2021

KMVE 010155Z AUTO 00000KT 10SM CLR M08/M12 A3006 RMK AO2